Grand Ridge, Florida
Current Conditions -  °F | °C
As of 12:53 AM on Thursday 23 Oct 2014 (Local Time) from KMAI Reporting Station
Light Rain Light Rain  
Wind Chill: 51°   Ceiling: Unl
Heat Index: 51°   Visibility: 10mi
Dew Point: 48°   Wind: 0mph
Humidity: 89%   Direction: NA
Pressure: 30.06"   Gusts: NA
Location:  30.71°N, 85.02°W
Report Text: KMAI 230553Z AUTO 00000KT 10SM -RA CLR 11/09 A3006 RMK AO2 RAE14B35 SLP177 P0000 60000 T01060089 10183 20100 402560100 58009 $
Loading
Personal Weather Stations






























Interactive Weather Map
Tropical Storm Tracking
New forecast layout! Learn more

10-Day Weather Forecast

Advertisements
Track Severe Weather on mobile